KMGM/MGM METAR and TAF weather

Enter ICAO airport designator
Station Type Date Time Source
KMGM METAR 2021/07/28 04:53 UTC NOAA

KMGM 280453Z AUTO 19006KT 10SM CLR 25/23 A3002 RMK AO2 SLP162 T02500233


Station Type Date Time Source
KMGM Decoded METAR 2021/07/28 04:53 UTC NOAA

MONTGOMERY DANNELLY FIELD, AL, United States (KMGM) 32-18N 86-24W 63M
Jul 28, 2021 - 12:53 AM EDT / 2021.07.28 0453 UTC
Wind: from the S (190 degrees) at 7 MPH (6 KT):0
Visibility: 10 mile(s):0
Sky conditions: clear
Temperature: 77.0 F (25.0 C)
Dew Point: 73.9 F (23.3 C)
Relative Humidity: 90%
Pressure (altimeter): 30.02 in. Hg (1016 hPa)
ob: KMGM 280453Z AUTO 19006KT 10SM CLR 25/23 A3002 RMK AO2 SLP162 T02500233
cycle: 5

Station Type Date Time Source
KMGM TAF 2021/07/28 03:24 UTC NOAA

TAF
AMD KMGM 280323Z 2803/2824 VRB03KT P6SM BKN025
TEMPO 2809/2813 4SM BR BKN003
FM281300 32004KT P6SM SCT050
FM281800 34006KT P6SM VCTS BKN050CB

Example: see airport list